sensor_id;sensor_type;location;lat;lon;timestamp;pressure;altitude;pressure_sealevel;temperature;humidity
35435;BME280;21556;55.782;37.528;2022-07-22T00:01:12;99322.44;;;17.23;100.00
35435;BME280;21556;55.782;37.528;2022-07-22T00:03:38;99324.00;;;17.35;100.00
35435;BME280;21556;55.782;37.528;2022-07-22T00:06:04;99326.63;;;17.40;100.00
35435;BME280;21556;55.782;37.528;2022-07-22T00:08:29;99329.34;;;17.33;100.00
35435;BME280;21556;55.782;37.528;2022-07-22T00:10:55;99333.78;;;17.33;100.00
35435;BME280;21556;55.782;37.528;2022-07-22T00:13:21;99329.19;;;17.43;100.00
35435;BME280;21556;55.782;37.528;2022-07-22T00:15:47;99327.44;;;17.43;100.00
35435;BME280;21556;55.782;37.528;2022-07-22T00:18:12;99333.44;;;17.53;100.00
35435;BME280;21556;55.782;37.528;2022-07-22T00:20:38;99332.78;;;17.40;100.00
35435;BME280;21556;55.782;37.528;2022-07-22T00:23:03;99330.03;;;17.45;100.00
35435;BME280;21556;55.782;37.528;2022-07-22T00:25:29;99336.06;;;17.54;100.00
35435;BME280;21556;55.782;37.528;2022-07-22T00:27:55;99328.41;;;17.38;100.00
35435;BME280;21556;55.782;37.528;2022-07-22T00:30:21;99328.44;;;17.36;100.00
35435;BME280;21556;55.782;37.528;2022-07-22T00:32:46;99329.22;;;17.41;100.00
35435;BME280;21556;55.782;37.528;2022-07-22T00:35:13;99322.88;;;17.51;100.00
35435;BME280;21556;55.782;37.528;2022-07-22T00:37:38;99328.19;;;17.50;100.00
35435;BME280;21556;55.782;37.528;2022-07-22T00:40:04;99318.34;;;17.56;100.00
35435;BME280;21556;55.782;37.528;2022-07-22T00:42:30;99324.66;;;17.49;100.00
35435;BME280;21556;55.782;37.528;2022-07-22T00:44:56;99332.66;;;17.46;100.00
35435;BME280;21556;55.782;37.528;2022-07-22T00:47:22;99332.78;;;17.40;100.00
35435;BME280;21556;55.782;37.528;2022-07-22T00:49:48;99329.31;;;17.37;100.00
35435;BME280;21556;55.782;37.528;2022-07-22T00:52:14;99331.78;;;17.46;100.00
35435;BME280;21556;55.782;37.528;2022-07-22T00:54:39;99330.03;;;17.45;100.00
35435;BME280;21556;55.782;37.528;2022-07-22T00:57:05;99331.00;;;17.41;100.00
35435;BME280;21556;55.782;37.528;2022-07-22T00:59:31;99328.53;;;17.30;100.00
35435;BME280;21556;55.782;37.528;2022-07-22T01:01:56;99324.19;;;17.26;100.00
35435;BME280;21556;55.782;37.528;2022-07-22T01:04:24;99332.94;;;17.31;100.00
35435;BME280;21556;55.782;37.528;2022-07-22T01:06:49;99331.47;;;17.12;100.00
35435;BME280;21556;55.782;37.528;2022-07-22T01:09:15;99327.91;;;17.14;100.00
35435;BME280;21556;55.782;37.528;2022-07-22T01:11:41;99334.88;;;17.20;100.00
35435;BME280;21556;55.782;37.528;2022-07-22T01:14:07;99340.19;;;17.21;100.00
35435;BME280;21556;55.782;37.528;2022-07-22T01:16:33;99327.09;;;17.11;100.00
35435;BME280;21556;55.782;37.528;2022-07-22T01:18:59;99334.84;;;17.23;100.00
35435;BME280;21556;55.782;37.528;2022-07-22T01:21:25;99339.44;;;17.10;100.00
35435;BME280;21556;55.782;37.528;2022-07-22T01:23:50;99340.38;;;17.06;100.00
35435;BME280;21556;55.782;37.528;2022-07-22T01:26:16;99344.00;;;17.03;100.00
35435;BME280;21556;55.782;37.528;2022-07-22T01:28:43;99347.34;;;17.15;100.00
35435;BME280;21556;55.782;37.528;2022-07-22T01:31:09;99350.00;;;17.15;100.00
35435;BME280;21556;55.782;37.528;2022-07-22T01:33:35;99349.25;;;17.05;100.00
35435;BME280;21556;55.782;37.528;2022-07-22T01:36:01;99339.34;;;17.16;100.00
35435;BME280;21556;55.782;37.528;2022-07-22T01:38:27;99348.50;;;16.95;100.00
35435;BME280;21556;55.782;37.528;2022-07-22T01:40:53;99352.88;;;16.99;100.00
35435;BME280;21556;55.782;37.528;2022-07-22T01:43:19;99347.59;;;16.99;100.00
35435;BME280;21556;55.782;37.528;2022-07-22T01:45:48;99360.28;;;16.73;100.00
35435;BME280;21556;55.782;37.528;2022-07-22T01:48:15;99360.13;;;16.87;100.00
35435;BME280;21556;55.782;37.528;2022-07-22T01:50:41;99361.72;;;16.98;100.00
35435;BME280;21556;55.782;37.528;2022-07-22T01:53:06;99355.41;;;17.05;100.00
35435;BME280;21556;55.782;37.528;2022-07-22T01:55:33;99359.03;;;17.01;100.00
35435;BME280;21556;55.782;37.528;2022-07-22T01:57:59;99359.75;;;17.11;100.00
35435;BME280;21556;55.782;37.528;2022-07-22T02:00:27;99359.72;;;17.13;100.00
35435;BME280;21556;55.782;37.528;2022-07-22T02:02:52;99359.78;;;17.09;100.00
35435;BME280;21556;55.782;37.528;2022-07-22T02:05:18;99365.94;;;17.12;100.00
35435;BME280;21556;55.782;37.528;2022-07-22T02:07:44;99369.75;;;16.94;100.00
35435;BME280;21556;55.782;37.528;2022-07-22T02:10:10;99370.56;;;16.97;100.00
35435;BME280;21556;55.782;37.528;2022-07-22T02:12:36;99370.66;;;16.93;100.00
35435;BME280;21556;55.782;37.528;2022-07-22T02:15:23;99368.88;;;16.93;100.00
35435;BME280;21556;55.782;37.528;2022-07-22T02:17:49;99366.13;;;16.98;100.00
35435;BME280;21556;55.782;37.528;2022-07-22T02:20:15;99367.91;;;16.97;100.00
35435;BME280;21556;55.782;37.528;2022-07-22T02:22:41;99371.44;;;16.98;100.00
35435;BME280;21556;55.782;37.528;2022-07-22T02:25:06;99370.50;;;17.02;100.00
35435;BME280;21556;55.782;37.528;2022-07-22T02:27:32;99370.53;;;16.99;100.00
35435;BME280;21556;55.782;37.528;2022-07-22T02:29:58;99371.31;;;17.07;100.00
35435;BME280;21556;55.782;37.528;2022-07-22T02:32:24;99379.28;;;17.07;100.00
35435;BME280;21556;55.782;37.528;2022-07-22T02:34:49;99390.97;;;16.91;100.00
35435;BME280;21556;55.782;37.528;2022-07-22T02:37:15;99396.34;;;16.86;100.00
35435;BME280;21556;55.782;37.528;2022-07-22T02:39:41;99391.84;;;16.91;100.00
35435;BME280;21556;55.782;37.528;2022-07-22T02:42:06;99397.06;;;16.97;100.00
35435;BME280;21556;55.782;37.528;2022-07-22T02:44:33;99391.72;;;16.99;100.00
35435;BME280;21556;55.782;37.528;2022-07-22T02:46:59;99392.59;;;17.01;100.00
35435;BME280;21556;55.782;37.528;2022-07-22T02:49:30;99384.53;;;17.08;100.00
35435;BME280;21556;55.782;37.528;2022-07-22T02:51:56;99390.91;;;16.97;100.00
35435;BME280;21556;55.782;37.528;2022-07-22T02:54:22;99398.63;;;17.12;100.00
35435;BME280;21556;55.782;37.528;2022-07-22T02:56:49;99397.69;;;17.15;100.00
35435;BME280;21556;55.782;37.528;2022-07-22T02:59:14;99403.72;;;17.24;100.00
35435;BME280;21556;55.782;37.528;2022-07-22T03:01:41;99409.94;;;17.25;100.00
35435;BME280;21556;55.782;37.528;2022-07-22T03:04:07;99410.84;;;17.22;100.00
35435;BME280;21556;55.782;37.528;2022-07-22T03:06:35;99409.84;;;17.29;100.00
35435;BME280;21556;55.782;37.528;2022-07-22T03:09:11;99407.19;;;17.29;100.00
35435;BME280;21556;55.782;37.528;2022-07-22T03:11:41;99409.69;;;17.39;100.00
35435;BME280;21556;55.782;37.528;2022-07-22T03:14:07;99414.06;;;17.41;100.00
35435;BME280;21556;55.782;37.528;2022-07-22T03:16:36;99420.38;;;17.34;100.00
35435;BME280;21556;55.782;37.528;2022-07-22T03:19:02;99418.72;;;17.27;100.00
35435;BME280;21556;55.782;37.528;2022-07-22T03:21:28;99417.66;;;17.39;100.00
35435;BME280;21556;55.782;37.528;2022-07-22T03:23:53;99412.41;;;17.34;100.00
35435;BME280;21556;55.782;37.528;2022-07-22T03:26:20;99416.78;;;17.38;100.00
35435;BME280;21556;55.782;37.528;2022-07-22T03:28:46;99409.84;;;17.28;100.00
35435;BME280;21556;55.782;37.528;2022-07-22T03:31:12;99426.38;;;17.45;100.00
35435;BME280;21556;55.782;37.528;2022-07-22T03:33:38;99427.94;;;17.59;100.00
35435;BME280;21556;55.782;37.528;2022-07-22T03:36:06;99426.31;;;17.50;100.00
35435;BME280;21556;55.782;37.528;2022-07-22T03:38:33;99433.19;;;17.63;100.00
35435;BME280;21556;55.782;37.528;2022-07-22T03:40:58;99429.81;;;17.52;100.00
35435;BME280;21556;55.782;37.528;2022-07-22T03:43:24;99446.41;;;17.66;100.00
35435;BME280;21556;55.782;37.528;2022-07-22T03:45:50;99440.09;;;17.72;100.00
35435;BME280;21556;55.782;37.528;2022-07-22T03:48:15;99442.78;;;17.70;100.00
35435;BME280;21556;55.782;37.528;2022-07-22T03:50:42;99448.00;;;17.78;100.00
35435;BME280;21556;55.782;37.528;2022-07-22T03:53:08;99442.50;;;17.90;100.00
35435;BME280;21556;55.782;37.528;2022-07-22T03:55:37;99446.91;;;17.91;100.00
35435;BME280;21556;55.782;37.528;2022-07-22T03:58:04;99454.13;;;17.83;100.00
35435;BME280;21556;55.782;37.528;2022-07-22T04:00:30;99450.47;;;17.89;100.00
35435;BME280;21556;55.782;37.528;2022-07-22T04:02:59;99442.47;;;17.92;100.00
35435;BME280;21556;55.782;37.528;2022-07-22T04:05:47;99449.44;;;17.97;100.00
35435;BME280;21556;55.782;37.528;2022-07-22T04:08:18;99452.13;;;17.96;100.00
35435;BME280;21556;55.782;37.528;2022-07-22T04:10:44;99451.00;;;18.08;100.00
35435;BME280;21556;55.782;37.528;2022-07-22T04:13:10;99461.72;;;18.03;100.00
35435;BME280;21556;55.782;37.528;2022-07-22T04:15:43;99456.38;;;18.04;100.00
35435;BME280;21556;55.782;37.528;2022-07-22T04:18:09;99456.25;;;18.12;100.00
35435;BME280;21556;55.782;37.528;2022-07-22T04:20:35;99462.25;;;18.22;100.00
35435;BME280;21556;55.782;37.528;2022-07-22T04:23:20;99459.59;;;18.23;100.00
35435;BME280;21556;55.782;37.528;2022-07-22T04:25:47;99461.53;;;18.14;100.00
35435;BME280;21556;55.782;37.528;2022-07-22T04:28:13;99464.91;;;18.23;100.00
35435;BME280;21556;55.782;37.528;2022-07-22T04:30:41;99462.16;;;18.28;100.00
35435;BME280;21556;55.782;37.528;2022-07-22T04:33:07;99470.94;;;18.32;100.00
35435;BME280;21556;55.782;37.528;2022-07-22T04:35:33;99465.59;;;18.33;100.00
35435;BME280;21556;55.782;37.528;2022-07-22T04:38:17;99471.72;;;18.37;100.00
35435;BME280;21556;55.782;37.528;2022-07-22T04:40:52;99477.69;;;18.48;100.00
35435;BME280;21556;55.782;37.528;2022-07-22T04:43:18;99477.59;;;18.54;100.00
35435;BME280;21556;55.782;37.528;2022-07-22T04:45:44;99485.47;;;18.59;100.00
35435;BME280;21556;55.782;37.528;2022-07-22T04:48:10;99482.75;;;18.63;100.00
35435;BME280;21556;55.782;37.528;2022-07-22T04:50:36;99483.47;;;18.70;100.00
35435;BME280;21556;55.782;37.528;2022-07-22T04:53:02;99484.38;;;18.70;100.00
35435;BME280;21556;55.782;37.528;2022-07-22T04:55:28;99476.34;;;18.75;100.00
35435;BME280;21556;55.782;37.528;2022-07-22T04:57:54;99486.91;;;18.76;100.00
35435;BME280;21556;55.782;37.528;2022-07-22T05:00:20;99483.44;;;18.74;100.00
35435;BME280;21556;55.782;37.528;2022-07-22T05:02:51;99478.84;;;18.83;100.00
35435;BME280;21556;55.782;37.528;2022-07-22T05:05:17;99486.69;;;18.89;100.00
35435;BME280;21556;55.782;37.528;2022-07-22T05:07:43;99478.66;;;18.90;100.00
35435;BME280;21556;55.782;37.528;2022-07-22T05:10:11;99480.34;;;18.94;100.00
35435;BME280;21556;55.782;37.528;2022-07-22T05:12:37;99483.81;;;18.99;100.00
35435;BME280;21556;55.782;37.528;2022-07-22T05:15:03;99488.16;;;19.04;100.00
35435;BME280;21556;55.782;37.528;2022-07-22T05:17:30;99487.16;;;19.08;100.00
35435;BME280;21556;55.782;37.528;2022-07-22T05:20:07;99495.03;;;19.14;100.00
35435;BME280;21556;55.782;37.528;2022-07-22T05:22:33;99502.84;;;19.20;100.00
35435;BME280;21556;55.782;37.528;2022-07-22T05:25:03;99505.44;;;19.24;100.00
35435;BME280;21556;55.782;37.528;2022-07-22T05:27:29;99501.75;;;19.30;100.00
35435;BME280;21556;55.782;37.528;2022-07-22T05:29:56;99501.78;;;19.29;100.00
35435;BME280;21556;55.782;37.528;2022-07-22T05:32:21;99501.56;;;19.38;100.00
35435;BME280;21556;55.782;37.528;2022-07-22T05:34:51;99504.88;;;19.49;100.00
35435;BME280;21556;55.782;37.528;2022-07-22T05:37:16;99498.59;;;19.52;100.00
35435;BME280;21556;55.782;37.528;2022-07-22T05:39:45;99495.75;;;19.61;100.00
35435;BME280;21556;55.782;37.528;2022-07-22T05:42:11;99501.75;;;19.70;100.00
35435;BME280;21556;55.782;37.528;2022-07-22T05:44:37;99501.75;;;19.70;100.00
35435;BME280;21556;55.782;37.528;2022-07-22T05:47:02;99509.41;;;19.84;100.00
35435;BME280;21556;55.782;37.528;2022-07-22T05:49:28;99509.09;;;19.96;100.00
35435;BME280;21556;55.782;37.528;2022-07-22T05:52:00;99502.75;;;20.02;100.00
35435;BME280;21556;55.782;37.528;2022-07-22T05:54:27;99504.16;;;20.17;100.00
35435;BME280;21556;55.782;37.528;2022-07-22T05:56:53;99500.06;;;20.36;100.00
35435;BME280;21556;55.782;37.528;2022-07-22T05:59:19;99503.19;;;20.55;100.00
35435;BME280;21556;55.782;37.528;2022-07-22T06:01:45;99504.34;;;20.78;100.00
35435;BME280;21556;55.782;37.528;2022-07-22T06:04:33;99505.63;;;20.94;100.00
35435;BME280;21556;55.782;37.528;2022-07-22T06:06:59;99501.78;;;21.04;100.00
35435;BME280;21556;55.782;37.528;2022-07-22T06:09:25;99498.28;;;21.33;100.00
35435;BME280;21556;55.782;37.528;2022-07-22T06:11:51;99496.16;;;21.45;100.00
35435;BME280;21556;55.782;37.528;2022-07-22T06:14:16;99495.84;;;21.82;100.00
35435;BME280;21556;55.782;37.528;2022-07-22T06:16:43;99496.78;;;21.81;100.00
35435;BME280;21556;55.782;37.528;2022-07-22T06:19:14;99490.66;;;22.04;100.00
35435;BME280;21556;55.782;37.528;2022-07-22T06:21:41;99489.38;;;22.17;100.00
35435;BME280;21556;55.782;37.528;2022-07-22T06:24:10;99492.88;;;22.19;100.00
35435;BME280;21556;55.782;37.528;2022-07-22T06:26:36;99495.69;;;22.15;100.00
35435;BME280;21556;55.782;37.528;2022-07-22T06:29:01;99494.25;;;22.31;100.00
35435;BME280;21556;55.782;37.528;2022-07-22T06:31:27;99495.72;;;22.65;100.00
35435;BME280;21556;55.782;37.528;2022-07-22T06:33:52;99496.16;;;22.52;100.00
35435;BME280;21556;55.782;37.528;2022-07-22T06:36:18;99500.34;;;22.85;100.00
35435;BME280;21556;55.782;37.528;2022-07-22T06:38:44;99500.34;;;22.85;100.00
35435;BME280;21556;55.782;37.528;2022-07-22T06:41:26;99505.25;;;22.72;100.00
35435;BME280;21556;55.782;37.528;2022-07-22T06:44:38;99502.75;;;23.16;100.00
35435;BME280;21556;55.782;37.528;2022-07-22T06:47:26;99499.63;;;23.28;100.00
35435;BME280;21556;55.782;37.528;2022-07-22T06:49:51;99505.75;;;23.32;100.00
35435;BME280;21556;55.782;37.528;2022-07-22T06:52:18;99490.63;;;23.76;100.00
35435;BME280;21556;55.782;37.528;2022-07-22T06:54:44;99505.00;;;23.73;100.00
35435;BME280;21556;55.782;37.528;2022-07-22T06:57:15;99500.91;;;23.87;100.00
35435;BME280;21556;55.782;37.528;2022-07-22T06:59:42;99505.75;;;23.99;100.00
35435;BME280;21556;55.782;37.528;2022-07-22T07:02:11;99503.47;;;24.10;100.00
35435;BME280;21556;55.782;37.528;2022-07-22T07:04:37;99505.28;;;24.10;100.00
35435;BME280;21556;55.782;37.528;2022-07-22T07:07:03;99497.22;;;24.72;100.00
35435;BME280;21556;55.782;37.528;2022-07-22T07:09:31;99497.56;;;24.65;100.00
35435;BME280;21556;55.782;37.528;2022-07-22T07:12:23;99503.63;;;24.70;100.00
35435;BME280;21556;55.782;37.528;2022-07-22T07:15:12;99506.75;;;24.80;100.00
35435;BME280;21556;55.782;37.528;2022-07-22T07:17:37;99501.38;;;25.00;100.00
35435;BME280;21556;55.782;37.528;2022-07-22T07:20:06;99504.88;;;25.02;100.00
35435;BME280;21556;55.782;37.528;2022-07-22T07:22:33;99500.47;;;24.40;100.00
35435;BME280;21556;55.782;37.528;2022-07-22T07:25:04;99508.00;;;25.12;100.00
35435;BME280;21556;55.782;37.528;2022-07-22T07:27:31;99496.41;;;25.68;100.00
35435;BME280;21556;55.782;37.528;2022-07-22T07:29:57;99502.88;;;26.54;100.00
35435;BME280;21556;55.782;37.528;2022-07-22T07:32:23;99499.00;;;26.59;98.47
35435;BME280;21556;55.782;37.528;2022-07-22T07:34:49;99500.72;;;26.78;96.28
35435;BME280;21556;55.782;37.528;2022-07-22T07:37:14;99495.91;;;27.18;92.75
35435;BME280;21556;55.782;37.528;2022-07-22T07:39:42;99504.50;;;27.89;76.08
35435;BME280;21556;55.782;37.528;2022-07-22T07:42:11;99493.56;;;28.06;78.96
35435;BME280;21556;55.782;37.528;2022-07-22T07:45:28;99495.09;;;28.57;73.32
35435;BME280;21556;55.782;37.528;2022-07-22T07:47:54;99499.88;;;28.82;71.17
35435;BME280;21556;55.782;37.528;2022-07-22T07:50:21;99495.25;;;28.84;67.21
35435;BME280;21556;55.782;37.528;2022-07-22T07:52:48;99497.53;;;29.20;60.26
35435;BME280;21556;55.782;37.528;2022-07-22T07:55:15;99487.09;;;30.11;51.20
35435;BME280;21556;55.782;37.528;2022-07-22T07:57:42;99499.31;;;29.62;52.00
35435;BME280;21556;55.782;37.528;2022-07-22T08:00:16;99493.72;;;30.19;49.71
35435;BME280;21556;55.782;37.528;2022-07-22T08:02:46;99497.94;;;30.51;47.74
35435;BME280;21556;55.782;37.528;2022-07-22T08:05:12;99494.13;;;30.40;51.10
35435;BME280;21556;55.782;37.528;2022-07-22T08:07:38;99502.41;;;29.56;52.82
35435;BME280;21556;55.782;37.528;2022-07-22T08:10:04;99510.78;;;29.51;55.24
35435;BME280;21556;55.782;37.528;2022-07-22T08:12:50;99504.22;;;30.64;51.66
35435;BME280;21556;55.782;37.528;2022-07-22T08:15:48;99498.72;;;29.98;53.79
35435;BME280;21556;55.782;37.528;2022-07-22T08:18:17;99495.81;;;30.81;49.28
35435;BME280;21556;55.782;37.528;2022-07-22T08:20:43;99508.53;;;30.54;50.51
35435;BME280;21556;55.782;37.528;2022-07-22T08:23:10;99509.16;;;29.49;59.89
35435;BME280;21556;55.782;37.528;2022-07-22T08:25:38;99515.00;;;29.56;60.70
35435;BME280;21556;55.782;37.528;2022-07-22T08:28:04;99511.81;;;29.78;57.22
35435;BME280;21556;55.782;37.528;2022-07-22T08:30:30;99510.91;;;29.91;52.42
35435;BME280;21556;55.782;37.528;2022-07-22T08:32:57;99514.72;;;27.98;71.00
35435;BME280;21556;55.782;37.528;2022-07-22T08:35:23;99521.78;;;28.47;71.58
35435;BME280;21556;55.782;37.528;2022-07-22T08:37:49;99516.66;;;27.96;73.85
35435;BME280;21556;55.782;37.528;2022-07-22T08:40:16;99521.75;;;28.17;72.91
35435;BME280;21556;55.782;37.528;2022-07-22T08:42:43;99517.28;;;29.49;60.90
35435;BME280;21556;55.782;37.528;2022-07-22T08:45:09;99518.97;;;30.06;53.58
35435;BME280;21556;55.782;37.528;2022-07-22T08:47:35;99521.59;;;30.34;53.19
35435;BME280;21556;55.782;37.528;2022-07-22T08:50:19;99517.56;;;30.00;54.06
35435;BME280;21556;55.782;37.528;2022-07-22T08:52:52;99530.06;;;30.95;45.96
35435;BME280;21556;55.782;37.528;2022-07-22T08:55:17;99522.41;;;30.62;47.83
35435;BME280;21556;55.782;37.528;2022-07-22T08:57:47;99526.25;;;31.10;43.55
35435;BME280;21556;55.782;37.528;2022-07-22T09:00:14;99522.81;;;31.34;45.00
35435;BME280;21556;55.782;37.528;2022-07-22T09:02:41;99523.16;;;31.66;41.83
35435;BME280;21556;55.782;37.528;2022-07-22T09:05:10;99527.97;;;31.37;42.39
35435;BME280;21556;55.782;37.528;2022-07-22T09:07:40;99534.59;;;30.42;46.60
35435;BME280;21556;55.782;37.528;2022-07-22T09:10:19;99531.09;;;30.27;47.06
35435;BME280;21556;55.782;37.528;2022-07-22T09:13:05;99521.28;;;30.91;46.38
35435;BME280;21556;55.782;37.528;2022-07-22T09:15:48;99514.91;;;31.31;44.80
35435;BME280;21556;55.782;37.528;2022-07-22T09:18:48;99517.16;;;31.86;40.59
35435;BME280;21556;55.782;37.528;2022-07-22T09:21:44;99523.28;;;32.25;40.23
35435;BME280;21556;55.782;37.528;2022-07-22T09:24:36;99528.00;;;31.74;40.90
35435;BME280;21556;55.782;37.528;2022-07-22T09:27:24;99524.41;;;31.36;42.25
35435;BME280;21556;55.782;37.528;2022-07-22T09:30:13;99527.44;;;29.87;49.53
35435;BME280;21556;55.782;37.528;2022-07-22T09:32:47;99535.03;;;29.94;48.08
35435;BME280;21556;55.782;37.528;2022-07-22T09:35:32;99543.44;;;29.20;52.75
35435;BME280;21556;55.782;37.528;2022-07-22T09:38:00;99536.28;;;29.33;52.97
35435;BME280;21556;55.782;37.528;2022-07-22T09:40:27;99541.63;;;28.90;58.10
35435;BME280;21556;55.782;37.528;2022-07-22T09:42:56;99536.88;;;29.38;51.48
35435;BME280;21556;55.782;37.528;2022-07-22T09:45:23;99537.44;;;29.99;49.66
35435;BME280;21556;55.782;37.528;2022-07-22T09:47:50;99532.22;;;30.37;48.96
35435;BME280;21556;55.782;37.528;2022-07-22T09:50:43;99529.94;;;29.34;55.39
35435;BME280;21556;55.782;37.528;2022-07-22T09:53:27;99540.66;;;28.77;57.29
35435;BME280;21556;55.782;37.528;2022-07-22T09:56:03;99537.69;;;30.09;49.73
35435;BME280;21556;55.782;37.528;2022-07-22T09:58:30;99536.44;;;29.73;48.57
35435;BME280;21556;55.782;37.528;2022-07-22T10:00:58;99542.34;;;29.80;45.87
35435;BME280;21556;55.782;37.528;2022-07-22T10:03:30;99534.38;;;31.23;41.23
35435;BME280;21556;55.782;37.528;2022-07-22T10:05:58;99525.13;;;31.51;40.41
35435;BME280;21556;55.782;37.528;2022-07-22T10:08:26;99530.91;;;31.47;39.53
35435;BME280;21556;55.782;37.528;2022-07-22T10:10:52;99527.44;;;31.94;37.85
35435;BME280;21556;55.782;37.528;2022-07-22T10:13:18;99532.41;;;31.63;38.26
35435;BME280;21556;55.782;37.528;2022-07-22T10:15:44;99537.56;;;30.64;40.88
35435;BME280;21556;55.782;37.528;2022-07-22T10:18:16;99530.78;;;31.48;39.84
35435;BME280;21556;55.782;37.528;2022-07-22T10:20:44;99531.75;;;31.60;40.89
35435;BME280;21556;55.782;37.528;2022-07-22T10:23:12;99530.78;;;31.23;40.15
35435;BME280;21556;55.782;37.528;2022-07-22T10:28:23;99548.16;;;29.02;49.96
35435;BME280;21556;55.782;37.528;2022-07-22T10:30:50;99549.69;;;30.05;45.67
35435;BME280;21556;55.782;37.528;2022-07-22T10:33:19;99541.09;;;31.56;42.67
35435;BME280;21556;55.782;37.528;2022-07-22T10:35:58;99532.19;;;31.67;38.55
35435;BME280;21556;55.782;37.528;2022-07-22T10:38:26;99538.81;;;31.11;40.92
35435;BME280;21556;55.782;37.528;2022-07-22T10:40:53;99542.06;;;30.38;43.56
35435;BME280;21556;55.782;37.528;2022-07-22T10:43:23;99546.22;;;29.47;49.98
35435;BME280;21556;55.782;37.528;2022-07-22T10:45:53;99557.63;;;29.09;50.56
35435;BME280;21556;55.782;37.528;2022-07-22T10:48:25;99553.09;;;29.24;49.87
35435;BME280;21556;55.782;37.528;2022-07-22T10:50:54;99547.06;;;30.57;42.75
35435;BME280;21556;55.782;37.528;2022-07-22T10:53:23;99547.25;;;30.81;41.31
35435;BME280;21556;55.782;37.528;2022-07-22T11:01:01;99532.09;;;31.43;37.90
35435;BME280;21556;55.782;37.528;2022-07-22T11:03:28;99539.16;;;30.94;42.72
35435;BME280;21556;55.782;37.528;2022-07-22T11:05:54;99547.31;;;30.27;49.79
35435;BME280;21556;55.782;37.528;2022-07-22T11:08:21;99549.88;;;29.74;49.26
35435;BME280;21556;55.782;37.528;2022-07-22T11:10:47;99550.28;;;29.40;49.14
35435;BME280;21556;55.782;37.528;2022-07-22T11:13:30;99553.66;;;29.15;50.83
35435;BME280;21556;55.782;37.528;2022-07-22T11:15:55;99546.09;;;28.61;53.71
35435;BME280;21556;55.782;37.528;2022-07-22T11:18:21;99541.72;;;28.89;50.68
35435;BME280;21556;55.782;37.528;2022-07-22T11:20:47;99548.53;;;28.20;57.10
35435;BME280;21556;55.782;37.528;2022-07-22T11:23:13;99551.19;;;28.51;61.11
35435;BME280;21556;55.782;37.528;2022-07-22T11:25:39;99541.09;;;28.55;55.20
35435;BME280;21556;55.782;37.528;2022-07-22T11:28:05;99548.09;;;28.58;53.94
35435;BME280;21556;55.782;37.528;2022-07-22T11:30:31;99542.44;;;28.16;54.96
35435;BME280;21556;55.782;37.528;2022-07-22T11:33:02;99541.53;;;28.01;58.31
35435;BME280;21556;55.782;37.528;2022-07-22T11:35:27;99540.34;;;28.21;55.89
35435;BME280;21556;55.782;37.528;2022-07-22T11:37:56;99542.44;;;28.16;60.13
35435;BME280;21556;55.782;37.528;2022-07-22T11:40:22;99536.84;;;27.89;59.44
35435;BME280;21556;55.782;37.528;2022-07-22T11:42:59;99547.25;;;27.95;58.77
35435;BME280;21556;55.782;37.528;2022-07-22T11:45:25;99553.94;;;27.56;62.08
35435;BME280;21556;55.782;37.528;2022-07-22T11:47:51;99548.72;;;27.85;58.82
35435;BME280;21556;55.782;37.528;2022-07-22T11:50:17;99534.94;;;27.75;57.56
35435;BME280;21556;55.782;37.528;2022-07-22T11:52:54;99541.34;;;28.04;55.35
35435;BME280;21556;55.782;37.528;2022-07-22T11:55:19;99539.41;;;28.06;56.53
35435;BME280;21556;55.782;37.528;2022-07-22T11:57:48;99537.28;;;28.27;54.03
35435;BME280;21556;55.782;37.528;2022-07-22T12:00:14;99538.84;;;28.31;55.47
35435;BME280;21556;55.782;37.528;2022-07-22T12:02:41;99525.47;;;28.60;53.12
35435;BME280;21556;55.782;37.528;2022-07-22T12:05:07;99532.09;;;28.40;55.18
35435;BME280;21556;55.782;37.528;2022-07-22T12:07:33;99538.34;;;28.25;57.28
35435;BME280;21556;55.782;37.528;2022-07-22T12:09:59;99530.66;;;27.87;60.93
35435;BME280;21556;55.782;37.528;2022-07-22T12:12:38;99527.88;;;28.04;57.89
35435;BME280;21556;55.782;37.528;2022-07-22T12:15:04;99545.56;;;27.45;66.02
35435;BME280;21556;55.782;37.528;2022-07-22T12:17:31;99541.44;;;27.22;63.42
35435;BME280;21556;55.782;37.528;2022-07-22T12:20:05;99538.41;;;27.28;60.42
35435;BME280;21556;55.782;37.528;2022-07-22T12:22:34;99539.81;;;27.35;61.87
35435;BME280;21556;55.782;37.528;2022-07-22T12:25:09;99532.16;;;27.28;64.68
35435;BME280;21556;55.782;37.528;2022-07-22T12:27:36;99537.34;;;27.15;70.10
35435;BME280;21556;55.782;37.528;2022-07-22T12:30:09;99536.16;;;27.21;67.69
35435;BME280;21556;55.782;37.528;2022-07-22T12:32:37;99532.16;;;27.28;69.08
35435;BME280;21556;55.782;37.528;2022-07-22T12:35:11;99536.50;;;27.30;72.28
35435;BME280;21556;55.782;37.528;2022-07-22T12:37:43;99524.09;;;27.28;66.90
35435;BME280;21556;55.782;37.528;2022-07-22T12:40:10;99541.28;;;27.25;65.66
35435;BME280;21556;55.782;37.528;2022-07-22T12:42:41;99538.69;;;27.40;62.82
35435;BME280;21556;55.782;37.528;2022-07-22T12:45:14;99532.78;;;27.49;57.29
35435;BME280;21556;55.782;37.528;2022-07-22T12:52:42;99525.00;;;26.94;63.04
35435;BME280;21556;55.782;37.528;2022-07-22T12:55:08;99535.84;;;26.92;64.66
35435;BME280;21556;55.782;37.528;2022-07-22T12:57:34;99526.50;;;27.17;63.53
35435;BME280;21556;55.782;37.528;2022-07-22T12:59:59;99525.13;;;27.25;64.05
35435;BME280;21556;55.782;37.528;2022-07-22T13:02:25;99521.66;;;27.39;66.45
35435;BME280;21556;55.782;37.528;2022-07-22T13:04:50;99524.03;;;27.45;62.11